createdAt,value
2023-02-01T00:00:34.384Z,4.67
2023-02-01T00:03:01.903Z,4.66
2023-02-01T00:05:28.675Z,4.69
2023-02-01T00:07:55.877Z,4.65
2023-02-01T00:10:22.902Z,4.62
2023-02-01T00:12:49.905Z,4.58
2023-02-01T00:15:16.821Z,4.53
2023-02-01T00:17:43.562Z,4.51
2023-02-01T00:20:11.434Z,4.48
2023-02-01T00:22:38.277Z,4.44
2023-02-01T00:25:05.711Z,4.42
2023-02-01T00:27:32.514Z,4.43
2023-02-01T00:29:59.331Z,4.44
2023-02-01T00:32:26.312Z,4.48
2023-02-01T00:34:53.161Z,4.56
2023-02-01T00:37:19.955Z,4.59
2023-02-01T00:39:46.969Z,4.61
2023-02-01T00:42:13.801Z,4.61
2023-02-01T00:44:40.617Z,4.64
2023-02-01T00:47:07.455Z,4.70
2023-02-01T00:49:34.282Z,4.70
2023-02-01T00:52:01.080Z,4.68
2023-02-01T00:54:28.322Z,4.68
2023-02-01T00:56:55.143Z,4.68
2023-02-01T00:59:21.918Z,4.71
2023-02-01T01:01:48.862Z,4.74
2023-02-01T01:04:15.745Z,4.77
2023-02-01T01:06:42.618Z,4.79
2023-02-01T01:09:10.918Z,4.87
2023-02-01T01:11:39.590Z,4.87
2023-02-01T01:14:08.873Z,4.85
2023-02-01T01:16:36.028Z,4.77
2023-02-01T01:19:03.618Z,4.72
2023-02-01T01:21:31.211Z,4.71
2023-02-01T01:23:58.626Z,4.64
2023-02-01T01:26:28.563Z,4.62
2023-02-01T01:29:00.344Z,4.55
2023-02-01T01:31:28.553Z,4.52
2023-02-01T01:33:58.431Z,4.45
2023-02-01T01:36:28.000Z,4.42
2023-02-01T01:38:55.007Z,4.35
2023-02-01T01:41:30.480Z,4.32
2023-02-01T01:44:46.122Z,4.20
2023-02-01T01:47:13.735Z,4.20
2023-02-01T01:49:40.970Z,4.16
2023-02-01T01:52:08.768Z,4.21
2023-02-01T01:54:40.917Z,4.22
2023-02-01T01:57:20.175Z,4.29
2023-02-01T01:59:55.837Z,4.34
2023-02-01T02:02:22.733Z,4.36
2023-02-01T02:04:49.788Z,4.42
2023-02-01T02:07:23.721Z,4.40
2023-02-01T02:10:00.010Z,4.38
2023-02-01T02:12:27.551Z,4.38
2023-02-01T02:14:54.818Z,4.35
2023-02-01T02:17:44.823Z,4.34
2023-02-01T02:21:04.996Z,4.25
2023-02-01T02:23:35.427Z,4.26
2023-02-01T02:26:14.975Z,4.27
2023-02-01T02:29:12.745Z,4.25
2023-02-01T02:32:37.024Z,4.29
2023-02-01T02:35:15.533Z,4.31
2023-02-01T02:37:58.053Z,4.36
2023-02-01T02:40:33.753Z,4.37
2023-02-01T02:43:36.179Z,4.44
2023-02-01T02:46:26.411Z,4.50
2023-02-01T02:48:58.768Z,4.52
2023-02-01T02:51:54.297Z,4.54
2023-02-01T02:54:48.417Z,4.55
2023-02-01T02:57:42.002Z,4.58
2023-02-01T03:00:36.250Z,4.57
2023-02-01T03:03:22.057Z,4.52
2023-02-01T03:05:51.634Z,4.56
2023-02-01T03:08:27.755Z,4.53
2023-02-01T03:11:09.479Z,4.49
2023-02-01T03:13:55.581Z,4.46
2023-02-01T03:16:38.661Z,4.43
2023-02-01T03:19:17.574Z,4.39
2023-02-01T03:22:05.625Z,4.34
2023-02-01T03:24:57.136Z,4.35
2023-02-01T03:27:36.137Z,4.35
2023-02-01T03:30:27.017Z,4.30
2023-02-01T03:33:02.847Z,4.34
2023-02-01T03:35:58.112Z,4.39
2023-02-01T03:38:34.397Z,4.35
2023-02-01T03:41:10.487Z,4.32
2023-02-01T03:43:52.299Z,4.34
2023-02-01T03:46:29.625Z,4.31
2023-02-01T03:48:56.946Z,4.28
2023-02-01T03:51:24.801Z,4.24
2023-02-01T03:53:54.924Z,4.18
2023-02-01T03:56:26.187Z,4.17
2023-02-01T03:59:01.946Z,4.10
2023-02-01T04:01:32.497Z,4.10
2023-02-01T04:03:59.489Z,4.06
2023-02-01T04:06:26.637Z,4.01
2023-02-01T04:08:53.716Z,3.97
2023-02-01T04:11:20.577Z,3.91
2023-02-01T04:13:47.341Z,3.87
2023-02-01T04:16:14.148Z,3.84
2023-02-01T04:18:41.132Z,3.79
2023-02-01T04:21:08.004Z,3.74
2023-02-01T04:23:35.192Z,3.69
2023-02-01T04:26:04.330Z,3.69
2023-02-01T04:28:32.186Z,3.67
2023-02-01T04:30:59.068Z,3.67
2023-02-01T04:33:25.903Z,3.62
2023-02-01T04:35:52.804Z,3.68
2023-02-01T04:38:19.757Z,3.71
2023-02-01T04:40:49.335Z,3.71
2023-02-01T04:43:18.265Z,3.69
2023-02-01T04:45:51.949Z,3.66
2023-02-01T04:48:20.177Z,3.69
2023-02-01T04:50:49.607Z,3.70
2023-02-01T04:53:16.886Z,3.69
2023-02-01T04:55:51.197Z,3.70
2023-02-01T04:58:17.987Z,3.74
2023-02-01T05:00:44.763Z,3.75
2023-02-01T05:03:11.527Z,3.75
2023-02-01T05:05:38.304Z,3.77
2023-02-01T05:08:05.079Z,3.82
2023-02-01T05:10:31.840Z,3.80
2023-02-01T05:13:17.144Z,3.83
2023-02-01T05:15:44.064Z,3.86
2023-02-01T05:18:10.858Z,3.89
2023-02-01T05:20:37.821Z,3.83
2023-02-01T05:23:04.956Z,3.87
2023-02-01T05:25:31.870Z,3.85
2023-02-01T05:27:58.647Z,3.85
2023-02-01T05:30:25.664Z,3.88
2023-02-01T05:32:54.517Z,3.97
2023-02-01T05:35:21.431Z,3.96
2023-02-01T05:37:48.271Z,4.02
2023-02-01T05:40:15.335Z,4.04
2023-02-01T05:42:42.111Z,4.07
2023-02-01T05:45:09.653Z,4.11
2023-02-01T05:47:36.437Z,4.12
2023-02-01T05:50:05.243Z,4.14
2023-02-01T05:52:32.496Z,4.19
2023-02-01T05:54:59.570Z,4.20
2023-02-01T05:57:26.513Z,4.22
2023-02-01T05:59:53.332Z,4.22
2023-02-01T06:02:20.170Z,4.22
2023-02-01T06:04:46.980Z,4.25
2023-02-01T06:07:14.075Z,4.25
2023-02-01T06:09:40.847Z,4.26
2023-02-01T06:12:08.030Z,4.25
2023-02-01T06:14:35.276Z,4.28
2023-02-01T06:17:02.162Z,4.29
2023-02-01T06:19:29.511Z,4.28
2023-02-01T06:21:56.329Z,4.26
2023-02-01T06:24:23.142Z,4.27
2023-02-01T06:26:49.924Z,4.28
2023-02-01T06:29:16.775Z,4.25
2023-02-01T06:31:44.157Z,4.24
2023-02-01T06:34:10.981Z,4.20
2023-02-01T06:36:37.758Z,4.20
2023-02-01T06:39:05.154Z,4.18
2023-02-01T06:41:31.999Z,4.21
2023-02-01T06:43:59.042Z,4.23
2023-02-01T06:46:25.984Z,4.25
2023-02-01T06:48:52.846Z,4.31
2023-02-01T06:51:29.475Z,4.37
2023-02-01T06:53:56.915Z,4.39
2023-02-01T06:56:24.226Z,4.40
2023-02-01T06:58:51.643Z,4.43
2023-02-01T07:01:19.288Z,4.44
2023-02-01T07:03:52.352Z,4.50
2023-02-01T07:06:19.887Z,4.53
2023-02-01T07:08:46.650Z,4.55
2023-02-01T07:11:15.863Z,4.58
2023-02-01T07:13:42.814Z,4.58
2023-02-01T07:16:16.907Z,4.57
2023-02-01T07:18:44.419Z,4.59
2023-02-01T07:21:11.586Z,4.59
2023-02-01T07:23:38.976Z,4.61
2023-02-01T07:26:08.701Z,4.61
2023-02-01T07:28:37.188Z,4.63
2023-02-01T07:31:10.931Z,4.63
2023-02-01T07:33:38.167Z,4.60
2023-02-01T07:36:07.994Z,4.60
2023-02-01T07:38:35.169Z,4.59
2023-02-01T07:41:04.902Z,4.60
2023-02-01T07:43:33.243Z,4.58
2023-02-01T07:46:00.775Z,4.63
2023-02-01T07:48:28.310Z,4.63
2023-02-01T07:51:12.869Z,4.64
2023-02-01T07:53:40.321Z,4.65
2023-02-01T07:56:17.392Z,4.69
2023-02-01T07:58:44.679Z,4.66
2023-02-01T08:01:25.597Z,4.72
2023-02-01T08:03:56.027Z,4.75
2023-02-01T08:06:24.970Z,4.83
2023-02-01T08:08:53.218Z,4.89
2023-02-01T08:11:22.717Z,4.96
2023-02-01T08:13:49.874Z,5.04
2023-02-01T08:16:18.849Z,5.09
2023-02-01T08:18:46.151Z,5.13
2023-02-01T08:21:16.755Z,5.19
2023-02-01T08:23:44.446Z,5.26
2023-02-01T08:26:26.795Z,5.26
2023-02-01T08:29:05.990Z,5.34
2023-02-01T08:31:32.885Z,5.30
2023-02-01T08:34:04.768Z,5.31
2023-02-01T08:36:32.492Z,5.28
2023-02-01T08:38:59.527Z,5.26
2023-02-01T08:41:30.249Z,5.27
2023-02-01T08:43:58.255Z,5.30
2023-02-01T08:46:25.965Z,5.27
2023-02-01T08:48:53.619Z,5.32
2023-02-01T08:51:23.011Z,5.33
2023-02-01T08:53:50.469Z,5.35
2023-02-01T08:56:19.744Z,5.37
2023-02-01T08:58:46.716Z,5.40
2023-02-01T09:01:18.395Z,5.40
2023-02-01T09:03:46.698Z,5.48
2023-02-01T09:06:15.966Z,5.54
2023-02-01T09:08:43.335Z,5.58
2023-02-01T09:11:22.992Z,5.66
2023-02-01T09:13:50.118Z,5.69
2023-02-01T09:16:17.065Z,5.76
2023-02-01T09:18:55.477Z,5.87
2023-02-01T09:21:29.056Z,5.94
2023-02-01T09:23:56.095Z,6.00
2023-02-01T09:26:31.519Z,6.07
2023-02-01T09:29:00.212Z,6.13
2023-02-01T09:31:27.233Z,6.18
2023-02-01T09:33:54.206Z,6.24
2023-02-01T09:36:21.110Z,6.29
2023-02-01T09:38:52.806Z,6.38
2023-02-01T09:41:28.025Z,6.39
2023-02-01T09:44:15.348Z,6.49
2023-02-01T09:46:42.348Z,6.52
2023-02-01T09:49:21.125Z,6.57
2023-02-01T09:51:51.436Z,6.65
2023-02-01T09:54:26.685Z,6.75
2023-02-01T09:57:02.863Z,6.84
2023-02-01T09:59:45.854Z,6.93
2023-02-01T10:02:18.973Z,7.01
2023-02-01T10:04:46.545Z,7.11
2023-02-01T10:08:11.221Z,7.18
2023-02-01T10:10:48.185Z,7.31
2023-02-01T10:13:23.886Z,7.33
2023-02-01T10:16:14.237Z,7.40
2023-02-01T10:19:02.549Z,7.42
2023-02-01T10:21:40.765Z,7.44
2023-02-01T10:24:38.714Z,7.50
2023-02-01T10:27:24.401Z,7.51
2023-02-01T10:30:05.714Z,7.56
2023-02-01T10:32:36.020Z,7.55
2023-02-01T10:35:16.257Z,7.55
2023-02-01T10:37:44.692Z,7.55
2023-02-01T10:40:18.100Z,7.48
2023-02-01T10:42:45.683Z,7.44
2023-02-01T10:45:20.899Z,7.48
2023-02-01T10:47:51.034Z,7.49
2023-02-01T10:50:35.929Z,7.49
2023-02-01T10:53:13.652Z,7.54
2023-02-01T10:55:46.847Z,7.54
2023-02-01T10:58:27.940Z,7.57
2023-02-01T11:01:07.911Z,7.64
2023-02-01T11:03:42.264Z,7.69
2023-02-01T11:06:27.578Z,7.79
2023-02-01T11:09:01.150Z,7.78
2023-02-01T11:11:30.274Z,7.80
2023-02-01T11:14:17.399Z,7.80
2023-02-01T11:16:54.753Z,7.81
2023-02-01T11:19:22.431Z,7.83
2023-02-01T11:21:54.914Z,7.84
2023-02-01T11:24:34.427Z,7.85
2023-02-01T11:27:06.800Z,7.84
2023-02-01T11:29:41.705Z,7.93
2023-02-01T11:32:10.183Z,8.03
2023-02-01T11:34:45.529Z,8.14
2023-02-01T11:37:32.258Z,8.23
2023-02-01T11:40:02.758Z,8.33
2023-02-01T11:42:30.458Z,8.32
2023-02-01T11:45:26.804Z,8.37
2023-02-01T11:47:55.968Z,8.37
2023-02-01T11:51:07.059Z,8.38
2023-02-01T11:54:08.751Z,8.49
2023-02-01T11:57:16.329Z,8.48
2023-02-01T12:00:14.684Z,8.45
2023-02-01T12:03:03.386Z,8.39
2023-02-01T12:05:51.977Z,8.45
2023-02-01T12:08:46.842Z,8.45
2023-02-01T12:11:26.104Z,8.53
2023-02-01T12:14:13.710Z,8.58
2023-02-01T12:17:01.642Z,8.69
2023-02-01T12:19:46.928Z,8.88
2023-02-01T12:22:35.090Z,8.97
2023-02-01T12:25:58.357Z,9.15
2023-02-01T12:29:13.156Z,9.23
2023-02-01T12:32:14.739Z,9.31
2023-02-01T12:35:12.399Z,9.26
2023-02-01T12:38:01.599Z,9.24
2023-02-01T12:40:52.716Z,9.30
2023-02-01T12:43:44.837Z,9.32
2023-02-01T12:46:18.826Z,9.41
2023-02-01T12:49:05.605Z,9.45
2023-02-01T12:51:43.190Z,9.53
2023-02-01T12:54:50.275Z,9.57
2023-02-01T12:57:29.536Z,9.66
2023-02-01T13:00:32.810Z,9.68
2023-02-01T13:03:32.378Z,9.65
2023-02-01T13:06:19.020Z,9.67
2023-02-01T13:08:59.692Z,9.67
2023-02-01T13:11:32.865Z,9.75
2023-02-01T13:14:43.444Z,9.86
2023-02-01T13:17:25.803Z,9.96
2023-02-01T13:20:25.545Z,9.92
2023-02-01T13:23:18.802Z,9.94
2023-02-01T13:25:51.672Z,9.92
2023-02-01T13:28:28.711Z,9.98
2023-02-01T13:31:09.863Z,9.99
2023-02-01T13:33:56.993Z,10.06
2023-02-01T13:36:39.611Z,10.10
2023-02-01T13:39:37.751Z,10.09
2023-02-01T13:42:28.382Z,10.09
2023-02-01T13:45:05.331Z,10.05
2023-02-01T13:47:45.160Z,10.02
2023-02-01T13:50:23.535Z,9.94
2023-02-01T13:53:01.756Z,9.90
2023-02-01T13:55:36.272Z,9.85
2023-02-01T13:58:14.918Z,9.74
2023-02-01T14:00:46.618Z,9.78
2023-02-01T14:03:23.933Z,9.79
2023-02-01T14:05:50.903Z,9.70
2023-02-01T14:08:42.196Z,9.79
2023-02-01T14:11:50.981Z,9.64
2023-02-01T14:14:17.776Z,9.64
2023-02-01T14:17:11.101Z,9.66
2023-02-01T14:19:38.465Z,9.61
2023-02-01T14:22:27.249Z,9.59
2023-02-01T14:24:59.366Z,9.65
2023-02-01T14:27:36.372Z,9.72
2023-02-01T14:30:09.450Z,9.69
2023-02-01T14:32:39.513Z,9.70
2023-02-01T14:35:30.416Z,9.74
2023-02-01T14:38:04.049Z,9.75
2023-02-01T14:40:32.107Z,9.66
2023-02-01T14:42:58.940Z,9.67
2023-02-01T14:45:29.199Z,9.62
2023-02-01T14:48:11.190Z,9.67
2023-02-01T14:50:48.297Z,9.60
2023-02-01T14:53:26.054Z,9.62
2023-02-01T14:56:15.183Z,9.52
2023-02-01T14:58:59.682Z,9.53
2023-02-01T15:01:36.359Z,9.52
2023-02-01T15:04:16.206Z,9.61
2023-02-01T15:06:56.019Z,9.61
2023-02-01T15:09:30.358Z,9.58
2023-02-01T15:12:25.281Z,9.50
2023-02-01T15:15:24.243Z,9.48
2023-02-01T15:18:01.178Z,9.41
2023-02-01T15:20:33.991Z,9.43
2023-02-01T15:23:06.320Z,9.39
2023-02-01T15:25:42.316Z,9.31
2023-02-01T15:28:15.876Z,9.32
2023-02-01T15:30:58.700Z,9.29
2023-02-01T15:33:27.855Z,9.29
2023-02-01T15:36:19.668Z,9.20
2023-02-01T15:38:46.742Z,9.27
2023-02-01T15:41:15.683Z,9.14
2023-02-01T15:43:56.254Z,9.08
2023-02-01T15:46:37.220Z,9.14
2023-02-01T15:49:05.308Z,9.12
2023-02-01T15:51:36.727Z,9.12
2023-02-01T15:54:11.229Z,9.08
2023-02-01T15:56:44.955Z,9.09
2023-02-01T15:59:20.780Z,9.07
2023-02-01T16:01:48.088Z,9.06
2023-02-01T16:04:34.032Z,9.08
2023-02-01T16:07:05.713Z,9.05
2023-02-01T16:09:57.157Z,9.03
2023-02-01T16:12:44.123Z,9.03
2023-02-01T16:15:10.885Z,8.99
2023-02-01T16:17:37.841Z,8.94
2023-02-01T16:20:05.346Z,8.97
2023-02-01T16:22:32.369Z,8.95
2023-02-01T16:24:59.149Z,8.94
2023-02-01T16:27:25.966Z,8.91
2023-02-01T16:29:52.787Z,8.94
2023-02-01T16:32:23.360Z,8.88
2023-02-01T16:34:50.371Z,8.85
2023-02-01T16:37:24.609Z,8.87
2023-02-01T16:39:52.678Z,8.83
2023-02-01T16:42:19.663Z,8.81
2023-02-01T16:44:46.580Z,8.79
2023-02-01T16:47:19.499Z,8.81
2023-02-01T16:49:47.942Z,8.79
2023-02-01T16:52:22.959Z,8.71
2023-02-01T16:54:50.191Z,8.71
2023-02-01T16:57:20.880Z,8.70
2023-02-01T16:59:47.709Z,8.70
2023-02-01T17:02:18.459Z,8.71
2023-02-01T17:04:45.436Z,8.65
2023-02-01T17:07:19.963Z,8.66
2023-02-01T17:09:48.504Z,8.64
2023-02-01T17:12:29.616Z,8.65
2023-02-01T17:14:58.516Z,8.62
2023-02-01T17:17:39.567Z,8.60
2023-02-01T17:20:07.841Z,8.62
2023-02-01T17:22:34.763Z,8.63
2023-02-01T17:25:01.623Z,8.58
2023-02-01T17:27:30.464Z,8.59
2023-02-01T17:29:57.328Z,8.56
2023-02-01T17:32:26.622Z,8.57
2023-02-01T17:34:53.829Z,8.58
2023-02-01T17:37:31.892Z,8.57
2023-02-01T17:39:59.578Z,8.61
2023-02-01T17:42:29.907Z,8.60
2023-02-01T17:45:02.715Z,8.62
2023-02-01T17:47:29.553Z,8.57
2023-02-01T17:49:57.098Z,8.59
2023-02-01T17:52:26.378Z,8.54
2023-02-01T17:54:54.406Z,8.59
2023-02-01T17:57:21.441Z,8.55
2023-02-01T17:59:48.495Z,8.54
2023-02-01T18:02:25.545Z,8.48
2023-02-01T18:04:52.803Z,8.56
2023-02-01T18:07:19.664Z,8.56
2023-02-01T18:09:46.688Z,8.53
2023-02-01T18:12:23.374Z,8.50
2023-02-01T18:14:50.407Z,8.49
2023-02-01T18:17:17.226Z,8.44
2023-02-01T18:19:43.995Z,8.47
2023-02-01T18:22:18.115Z,8.43
2023-02-01T18:24:45.041Z,8.46
2023-02-01T18:27:11.781Z,8.40
2023-02-01T18:29:38.704Z,8.40
2023-02-01T18:32:05.712Z,8.44
2023-02-01T18:34:32.473Z,8.36
2023-02-01T18:36:59.366Z,8.39
2023-02-01T18:39:26.119Z,8.42
2023-02-01T18:41:53.276Z,8.38
2023-02-01T18:44:20.496Z,8.36
2023-02-01T18:46:47.296Z,8.37
2023-02-01T18:49:18.121Z,8.34
2023-02-01T18:51:45.632Z,8.29
2023-02-01T18:54:12.587Z,8.25
2023-02-01T18:56:40.061Z,8.28
2023-02-01T18:59:07.046Z,8.25
2023-02-01T19:01:33.840Z,8.23
2023-02-01T19:04:08.510Z,8.17
2023-02-01T19:06:38.638Z,8.15
2023-02-01T19:09:05.388Z,8.12
2023-02-01T19:11:32.152Z,8.14
2023-02-01T19:13:58.932Z,8.12
2023-02-01T19:16:25.711Z,8.14
2023-02-01T19:18:53.647Z,8.11
2023-02-01T19:21:20.544Z,8.12
2023-02-01T19:23:47.542Z,8.08
2023-02-01T19:26:16.635Z,8.07
2023-02-01T19:28:48.143Z,8.10
2023-02-01T19:31:16.354Z,8.17
2023-02-01T19:33:43.272Z,8.09
2023-02-01T19:36:11.097Z,8.12
2023-02-01T19:38:38.935Z,8.14
2023-02-01T19:41:06.258Z,8.18
2023-02-01T19:43:33.601Z,8.17
2023-02-01T19:46:03.102Z,8.19
2023-02-01T19:48:31.580Z,8.19
2023-02-01T19:50:59.297Z,8.12
2023-02-01T19:53:28.097Z,8.15
2023-02-01T19:55:57.168Z,8.16
2023-02-01T19:58:26.151Z,8.23
2023-02-01T20:00:57.301Z,8.21
2023-02-01T20:03:24.641Z,8.23
2023-02-01T20:05:57.491Z,8.23
2023-02-01T20:08:25.299Z,8.19
2023-02-01T20:10:52.506Z,8.20
2023-02-01T20:13:19.767Z,8.22
2023-02-01T20:15:46.766Z,8.26
2023-02-01T20:18:13.719Z,8.27
2023-02-01T20:20:41.833Z,8.23
2023-02-01T20:23:09.229Z,8.23
2023-02-01T20:25:37.962Z,8.25
2023-02-01T20:28:05.078Z,8.26
2023-02-01T20:30:32.551Z,8.28
2023-02-01T20:32:59.503Z,8.24
2023-02-01T20:35:26.844Z,8.26
2023-02-01T20:37:58.441Z,8.27
2023-02-01T20:40:26.072Z,8.26
2023-02-01T20:42:53.301Z,8.22
2023-02-01T20:45:21.209Z,8.20
2023-02-01T20:47:53.080Z,8.22
2023-02-01T20:50:21.227Z,8.24
2023-02-01T20:52:49.289Z,8.22
2023-02-01T20:55:17.668Z,8.22
2023-02-01T20:57:45.761Z,8.23
2023-02-01T21:00:14.039Z,8.25
2023-02-01T21:02:40.814Z,8.19
2023-02-01T21:05:08.927Z,8.17
2023-02-01T21:07:37.923Z,8.19
2023-02-01T21:10:06.562Z,8.12
2023-02-01T21:12:33.459Z,8.11
2023-02-01T21:15:00.515Z,8.15
2023-02-01T21:17:30.573Z,8.15
2023-02-01T21:19:57.991Z,8.08
2023-02-01T21:22:25.256Z,8.12
2023-02-01T21:24:52.047Z,8.14
2023-02-01T21:27:19.035Z,8.12
2023-02-01T21:29:45.797Z,8.14
2023-02-01T21:32:13.511Z,8.14
2023-02-01T21:34:40.327Z,8.14
2023-02-01T21:37:07.095Z,8.09
2023-02-01T21:39:34.178Z,8.10
2023-02-01T21:42:17.725Z,8.12
2023-02-01T21:44:49.105Z,8.07
2023-02-01T21:47:19.589Z,8.13
2023-02-01T21:49:49.076Z,8.08
2023-02-01T21:52:17.756Z,8.11
2023-02-01T21:54:45.156Z,8.11
2023-02-01T21:57:12.687Z,8.10
2023-02-01T21:59:42.510Z,8.12
2023-02-01T22:02:16.655Z,8.07
2023-02-01T22:04:44.147Z,8.11
2023-02-01T22:07:11.706Z,8.07
2023-02-01T22:09:38.728Z,8.07
2023-02-01T22:12:05.928Z,8.09
2023-02-01T22:14:33.584Z,8.04
2023-02-01T22:17:01.067Z,8.08
2023-02-01T22:19:27.795Z,8.08
2023-02-01T22:21:54.757Z,8.08
2023-02-01T22:24:22.291Z,8.12
2023-02-01T22:26:49.806Z,8.10
2023-02-01T22:29:19.419Z,8.09
2023-02-01T22:31:46.414Z,8.06
2023-02-01T22:34:13.930Z,8.06
2023-02-01T22:36:41.453Z,8.05
2023-02-01T22:39:08.410Z,8.04
2023-02-01T22:41:35.304Z,8.07
2023-02-01T22:44:02.157Z,8.02
2023-02-01T22:46:31.699Z,8.03
2023-02-01T22:48:59.461Z,8.08
2023-02-01T22:51:30.478Z,7.99
2023-02-01T22:53:58.295Z,8.10
2023-02-01T22:56:32.079Z,8.10
2023-02-01T22:59:03.632Z,8.08
2023-02-01T23:01:30.946Z,8.09
2023-02-01T23:04:04.227Z,8.08
2023-02-01T23:06:33.093Z,8.02
2023-02-01T23:09:04.080Z,8.03
2023-02-01T23:11:31.577Z,8.06
2023-02-01T23:13:58.428Z,8.09
2023-02-01T23:16:25.552Z,7.99
2023-02-01T23:18:52.369Z,8.07
2023-02-01T23:21:23.044Z,8.05
2023-02-01T23:23:53.863Z,8.05
2023-02-01T23:26:22.390Z,8.05
2023-02-01T23:28:54.265Z,8.08
2023-02-01T23:31:24.322Z,8.09
2023-02-01T23:33:55.040Z,8.02
2023-02-01T23:36:24.316Z,8.05
2023-02-01T23:38:51.761Z,8.03
2023-02-01T23:41:21.026Z,8.06
2023-02-01T23:44:00.048Z,8.04
2023-02-01T23:46:33.172Z,8.07
2023-02-01T23:49:01.493Z,8.02
2023-02-01T23:51:29.563Z,8.03
2023-02-01T23:53:56.616Z,8.07
2023-02-01T23:56:27.979Z,7.98
2023-02-01T23:58:57.075Z,8.02
